This is the latest recevied weather packets stored in our database for station/object YB1DDK-2. If no packets are shown the sender has not sent any weather packets the latest 10 day(s).
| Time | Temp. | Humidity | Pressure | Rain* | Wind** | Luminosity | Snow |
|---|---|---|---|---|---|---|---|
| 1777888594 | 31.67° C | 73% | 1002 hPa | - | - | 0 W/m² | - |
| 1777887672 | 31.67° C | 71% | 1001 hPa | - | - | 0 W/m² | - |
| 1777886750 | 31.67° C | 70% | 1001 hPa | - | - | 0 W/m² | - |
| 1777885828 | 31.67° C | 71% | 1001 hPa | - | - | 0 W/m² | - |
| 1777884906 | 32.22° C | 69% | 1001 hPa | - | - | 0 W/m² | - |
| 1777883984 | 32.22° C | 69% | 1000 hPa | - | - | 0 W/m² | - |
| 1777883062 | 32.22° C | 70% | 1001 hPa | - | - | 0 W/m² | - |
| 1777882140 | 32.22° C | 70% | 1001 hPa | - | - | 0 W/m² | - |
| 1777881218 | 33.33° C | 71% | 1000 hPa | - | - | 0 W/m² | - |
| 1777880296 | 34.44° C | 61% | 1000 hPa | - | - | 0 W/m² | - |
| 1777879374 | 34.44° C | 59% | 999 hPa | - | - | 0 W/m² | - |
| 1777878452 | 34.44° C | 59% | 999 hPa | - | - | 0 W/m² | - |
| 1777877530 | 34.44° C | 60% | 999 hPa | - | - | 0 W/m² | - |
| 1777876608 | 34.44° C | 59% | 999 hPa | - | - | 0 W/m² | - |
| 1777875686 | 35° C | 60% | 1000 hPa | - | - | 0 W/m² | - |
| 1777874764 | 35° C | 59% | 1000 hPa | - | - | 0 W/m² | - |
| 1777872920 | 35.56° C | 58% | 1000 hPa | - | - | 0 W/m² | - |
| 1777871997 | 36.67° C | 51% | 1000 hPa | - | - | 0 W/m² | - |
| 1777871005 | 36.11° C | 55% | 1000 hPa | - | - | 0 W/m² | - |
| 1777870082 | 35.56° C | 58% | 1001 hPa | - | - | 0 W/m² | - |
| 1777869160 | 35.56° C | 58% | 1001 hPa | - | - | 0 W/m² | - |
| 1777868238 | 36.11° C | 55% | 1001 hPa | - | - | 0 W/m² | - |
| 1777867316 | 36.11° C | 53% | 1001 hPa | - | - | 0 W/m² | - |
| 1777866394 | 35.56° C | 57% | 1002 hPa | - | - | 0 W/m² | - |
| 1777865472 | 35.56° C | 58% | 1002 hPa | - | - | 0 W/m² | - |
* Rain since midnight (hover to see other rain measurements)
** Current wind speed in m/s (hover to see current wind gust speed)